createdAt,value
2019-04-01T16:58:18.867Z,38.80
2019-04-01T17:04:20.022Z,21.17
2019-04-01T17:09:20.397Z,29.52
2019-04-01T17:11:54.185Z,29.72
2019-04-01T17:14:24.442Z,27.10
2019-04-01T17:16:55.523Z,30.85
2019-04-01T17:19:28.009Z,27.00
2019-04-01T17:21:58.677Z,23.38
2019-04-01T17:24:29.421Z,20.75
2019-04-01T17:27:07.235Z,21.73
2019-04-01T17:29:37.883Z,20.65
2019-04-01T17:32:08.639Z,28.40
2019-04-01T17:34:47.254Z,20.23
2019-04-01T17:37:17.721Z,21.97
2019-04-01T17:39:48.569Z,24.52
2019-04-01T17:42:19.327Z,23.20
2019-04-01T17:44:53.352Z,24.45
2019-04-01T17:47:27.043Z,28.30
2019-04-01T17:49:56.289Z,28.65
2019-04-01T17:52:27.046Z,60.78
2019-04-01T17:54:57.697Z,39.20
2019-04-01T17:57:28.433Z,49.60
2019-04-01T17:59:59.204Z,47.75
2019-04-01T18:02:31.065Z,59.40
2019-04-01T18:05:01.842Z,33.20
2019-04-01T18:07:32.488Z,84.87
2019-04-01T18:10:03.334Z,83.30
2019-04-01T18:12:34.200Z,74.12
2019-04-01T18:15:04.939Z,62.65
2019-04-01T18:17:35.608Z,40.20
2019-04-01T18:20:07.083Z,39.55
2019-04-01T18:22:37.935Z,54.80
2019-04-01T18:25:08.791Z,40.70
2019-04-01T18:27:40.461Z,46.15
2019-04-01T18:30:11.321Z,46.58
2019-04-01T18:32:42.059Z,34.90
2019-04-01T18:35:12.833Z,31.82
2019-04-01T18:37:43.485Z,23.18
2019-04-01T18:40:14.334Z,16.45
2019-04-01T18:42:45.189Z,17.73
2019-04-01T18:45:16.028Z,14.28
2019-04-01T18:50:16.415Z,14.38
2019-04-01T18:52:47.185Z,13.30
2019-04-01T18:55:17.834Z,18.73
2019-04-01T18:57:48.587Z,22.95
2019-04-01T19:00:19.344Z,20.95
2019-04-01T19:02:50.078Z,26.65
2019-04-01T19:05:20.750Z,19.70
2019-04-01T19:07:51.710Z,20.70
2019-04-01T19:10:22.342Z,22.17
2019-04-01T19:13:05.101Z,21.42
2019-04-01T19:15:26.249Z,23.12
2019-04-01T19:17:57.165Z,21.48
2019-04-01T19:20:30.432Z,25.00
2019-04-01T19:23:01.213Z,35.20
2019-04-01T19:25:32.300Z,29.90
2019-04-01T19:28:04.184Z,27.10
2019-04-01T19:30:34.915Z,28.77
2019-04-01T19:33:06.800Z,27.48
2019-04-01T19:35:37.465Z,24.32
2019-04-01T19:38:08.219Z,26.95
2019-04-01T19:40:38.873Z,26.65
2019-04-01T19:43:09.708Z,32.80
2019-04-01T19:45:41.200Z,28.55
2019-04-01T19:48:11.831Z,27.75
2019-04-01T19:50:42.703Z,28.27
2019-04-01T19:53:13.447Z,18.40
2019-04-01T19:55:44.209Z,18.62
2019-04-01T19:58:14.863Z,17.52
2019-04-01T20:00:45.718Z,18.45
2019-04-01T20:03:16.469Z,14.33
2019-04-01T20:05:47.223Z,15.75
2019-04-01T20:08:17.981Z,27.40
2019-04-01T20:10:48.613Z,19.62
2019-04-01T20:13:19.281Z,33.92
2019-04-01T20:18:20.059Z,27.00
2019-04-01T20:20:50.812Z,25.55
2019-04-01T20:23:22.151Z,29.07
2019-04-01T20:25:53.448Z,25.62
2019-04-01T20:28:25.134Z,25.45
2019-04-01T20:30:56.570Z,32.88
2019-04-01T20:33:27.345Z,28.77
2019-04-01T20:35:58.270Z,24.77
2019-04-01T20:38:29.056Z,34.83
2019-04-01T20:40:59.805Z,35.70
2019-04-01T20:43:30.581Z,25.55
2019-04-01T20:46:01.436Z,22.93
2019-04-01T20:48:32.264Z,30.37
2019-04-01T20:51:03.659Z,26.17
2019-04-01T20:53:34.521Z,29.70
2019-04-01T20:56:05.267Z,25.50
2019-04-01T20:58:35.924Z,27.05
2019-04-01T21:01:07.175Z,32.08
2019-04-01T21:03:38.130Z,30.82
2019-04-01T21:06:19.019Z,26.87
2019-04-01T21:09:04.539Z,25.12
2019-04-01T21:11:42.111Z,22.93
2019-04-01T21:14:12.968Z,21.40
2019-04-01T21:16:43.824Z,18.45
2019-04-01T21:19:15.357Z,19.85
2019-04-01T21:21:46.541Z,20.12
2019-04-01T21:24:25.274Z,19.67
2019-04-01T21:26:56.203Z,20.48
2019-04-01T21:29:26.985Z,18.73
2019-04-01T21:31:57.857Z,19.12
2019-04-01T21:34:28.612Z,18.77
2019-04-01T21:36:59.246Z,18.00
2019-04-01T21:42:00.757Z,20.20
2019-04-01T21:44:31.629Z,24.92
2019-04-01T21:49:31.892Z,22.13
2019-04-01T21:52:03.496Z,22.25
2019-04-01T21:54:34.948Z,29.18
2019-04-01T21:57:05.684Z,28.25
2019-04-01T21:59:36.558Z,25.00
2019-04-01T22:02:07.397Z,22.65
2019-04-01T22:04:41.308Z,19.07
2019-04-01T22:07:12.297Z,19.10
2019-04-01T22:09:43.053Z,18.90
2019-04-01T22:12:13.786Z,17.05
2019-04-01T22:14:44.457Z,20.12
2019-04-01T22:17:16.149Z,16.37
2019-04-01T22:19:47.501Z,20.92
2019-04-01T22:22:18.252Z,18.32
2019-04-01T22:24:49.005Z,16.17
2019-04-01T22:27:19.863Z,18.48
2019-04-01T22:29:51.527Z,17.20
2019-04-01T22:32:22.391Z,21.90
2019-04-01T22:34:53.147Z,20.75
2019-04-01T22:37:27.413Z,21.50
2019-04-01T22:39:56.089Z,16.25
2019-04-01T22:42:27.259Z,17.90
2019-04-01T22:44:58.210Z,16.50
2019-04-01T22:47:29.057Z,14.63
2019-04-01T22:49:59.815Z,16.48
2019-04-01T22:52:30.626Z,17.32
2019-04-01T22:55:01.529Z,15.93
2019-04-01T22:57:32.291Z,19.73
2019-04-01T23:00:03.041Z,19.00
2019-04-01T23:02:35.325Z,18.23
2019-04-01T23:05:08.271Z,16.73
2019-04-01T23:07:38.877Z,19.60
2019-04-01T23:10:09.614Z,21.37
2019-04-01T23:12:40.488Z,16.27
2019-04-01T23:15:11.123Z,17.05
2019-04-01T23:20:11.728Z,16.93
2019-04-01T23:22:42.478Z,16.35
2019-04-01T23:25:13.425Z,17.32
2019-04-01T23:27:44.294Z,19.98
2019-04-01T23:30:16.071Z,25.80
2019-04-01T23:32:46.927Z,18.60
2019-04-01T23:35:17.682Z,18.75
2019-04-01T23:37:48.337Z,17.02
2019-04-01T23:40:19.188Z,15.80
2019-04-01T23:42:49.824Z,15.78
2019-04-01T23:47:51.452Z,15.15
2019-04-01T23:50:22.205Z,15.18
2019-04-01T23:52:52.865Z,18.87
2019-04-01T23:57:54.129Z,18.50
